Terminal Aerodrome Forecast
Issued by NWS

Home | Current Version | Previous Version | Text Only | Print | Product List | Glossary Off
Versions: 1 2 3 4 5 6 7 8 9 10 11 12 13 14 15 16 17 18 19 20 21 22 23 24

000
FTUS43 KMPX 290520
TAFRWF
TAF
KRWF 290520Z 2906/3006 14004KT P6SM SKC
     FM290900 16002KT 6SM BR SKC
      TEMPO 2910/2913 2SM BR SKC
     FM291400 17005KT P6SM SKC=

USA.gov is the U.S. government's official web portal to all federal, state and local government web resources and services.